Reno, NV (89509)

5:18 PM PDT on August 01, 2015 (GMT -0700)
Caughlin/McCarran | | Change Station
CLOSE
Current Station
Personal Weather Station
Location: Reno, NV
Elevation: 5144 ft
Nearby Weather Stations

Elev 5144 ft 39.48 °N, 119.85 °W | Updated 9 minutes ago

Mostly Cloudy
Mostly Cloudy
87.9 °F
Feels Like 85 °F
N
2.0
Wind Variable Wind from West
Gusts 6.0 mph

Today
High -- | Low -- °F
--% Chance of Precip.
Yesterday
High -- | Low -- °F
Precip. -- in
5:59 AM 8:12 PM
Waning Gibbous, 97% visible
Pressure 29.83 in
Visibility 10.0 miles
Clouds Scattered Clouds 11000 ft
Scattered Clouds 14000 ft
Mostly Cloudy 18000 ft
Mostly Cloudy 30000 ft
Heat Index 85 °F
Dew Point 43 °F
Humidity 21%
Rainfall 0.00 in
Snow Depth Not available.
UV 3 out of 12
Pollen 6.30 out of 12
Air Quality Not available.
Flu Activity Not available.
METAR KRNO 012355Z 00000KT 10SM SCT110 SCT140 BKN180 BKN300 34/03 A3002 RMK AO2 SLP099 VIRGA T03390028 10367 20283 56015

More Conditions Fewer Conditions

Pressure 29.83 in
Visibility 10.0 miles
Clouds Scattered Clouds 11000 ft
Scattered Clouds 14000 ft
Mostly Cloudy 18000 ft
Mostly Cloudy 30000 ft
Heat Index 85 °F
Dew Point 43 °F
Humidity 21%
Rainfall 0.00 in
Snow Depth Not available.
UV 3 out of 12
Pollen 6.30 out of 12
Air Quality Not available.
Flu Activity Not available.
METAR KRNO 012355Z 00000KT 10SM SCT110 SCT140 BKN180 BKN300 34/03 A3002 RMK AO2 SLP099 VIRGA T03390028 10367 20283 56015

More Conditions Fewer Conditions

10-Day Weather Forecast

×

Almanac

Astronomy

Aug. 01, 2015 Rise Set
Actual Time
Civil Twilight
Nautical Twilight
Astronomical Twilight
Moon
Length of Visible Light
Length of Day
Tomorrow will be .
, % of the Moon is Illuminated

Today's Extremes

State Highs State Lows

Community

WunderPhotos

Upload Photos

1,843,102 photos uploaded!

WunderBlogs® & News

Nearby

Air Quality

  Air Quality AQ Index Pollutant
Not available.

Snow Depth

Station Depth Elevation

Earthquake Activity

City Distance Mag. Time & Date
Minimum magnitude displayed is 2.5.

Coastal Water Temperatures

Place Temperature

Stations

Nearby Weather Stations

Station Location Temp. Windchill Dew Point Humidity Wind Precip. Elev Updated Type